createdAt,value
2022-08-07T00:02:40.681Z,85931.09
2022-08-07T00:05:05.811Z,85961.97
2022-08-07T00:07:40.873Z,85939.53
2022-08-07T00:10:26.294Z,85943.03
2022-08-07T00:13:23.899Z,85924.72
2022-08-07T00:16:21.598Z,85950.91
2022-08-07T00:19:21.784Z,85957.69
2022-08-07T00:22:02.342Z,85951.59
2022-08-07T00:24:31.761Z,85952.16
2022-08-07T00:27:07.316Z,85942.75
2022-08-07T00:32:53.041Z,85950.22
2022-08-07T00:35:23.020Z,85933.03
2022-08-07T00:38:16.215Z,85950.00
2022-08-07T00:41:00.066Z,85929.16
2022-08-07T00:44:00.315Z,85939.63
2022-08-07T00:46:15.533Z,85905.00
2022-08-07T00:48:43.352Z,85903.03
2022-08-07T00:51:11.180Z,85841.09
2022-08-07T00:53:55.332Z,85927.31
2022-08-07T00:56:29.948Z,85924.38
2022-08-07T00:59:35.932Z,85924.28
2022-08-07T01:02:14.214Z,85887.50
2022-08-07T01:04:58.186Z,85898.09
2022-08-07T01:07:29.779Z,85913.50
2022-08-07T01:10:06.803Z,85857.00
2022-08-07T01:12:53.715Z,85920.41
2022-08-07T01:15:35.752Z,85924.66
2022-08-07T01:18:17.202Z,85895.81
2022-08-07T01:21:22.875Z,85893.00
2022-08-07T01:24:21.688Z,85926.50
2022-08-07T01:26:54.158Z,85867.41
2022-08-07T01:29:27.962Z,85929.78
2022-08-07T01:32:23.398Z,85921.09
2022-08-07T01:34:56.085Z,85918.28
2022-08-07T01:37:27.047Z,85920.50
2022-08-07T01:40:02.706Z,85865.53
2022-08-07T01:42:38.077Z,85923.81
2022-08-07T01:45:18.387Z,85906.88
2022-08-07T01:48:18.978Z,85916.50
2022-08-07T01:54:08.987Z,85907.47
2022-08-07T01:56:59.935Z,85911.44
2022-08-07T02:00:04.598Z,85914.25
2022-08-07T02:03:12.463Z,85904.44
2022-08-07T02:05:59.315Z,85836.84
2022-08-07T02:08:38.265Z,85876.00
2022-08-07T02:12:03.939Z,85907.16
2022-08-07T02:14:36.217Z,85902.72
2022-08-07T02:18:03.749Z,85902.72
2022-08-07T02:20:34.126Z,85895.47
2022-08-07T02:23:06.517Z,85874.59
2022-08-07T02:26:30.952Z,85896.56
2022-08-07T02:28:29.659Z,85898.44
2022-08-07T02:31:10.272Z,85883.69
2022-08-07T02:34:18.094Z,85900.31
2022-08-07T02:36:52.438Z,85881.19
2022-08-07T02:39:43.934Z,85899.38
2022-08-07T02:42:37.601Z,85904.81
2022-08-07T02:46:00.630Z,85891.47
2022-08-07T02:47:57.194Z,85856.25
2022-08-07T02:50:32.378Z,85877.13
2022-08-07T02:53:15.714Z,85895.09
2022-08-07T02:56:03.977Z,85879.63
2022-08-07T02:58:39.640Z,85896.56
2022-08-07T03:01:19.042Z,85892.75
2022-08-07T03:04:12.494Z,85885.66
2022-08-07T03:06:44.569Z,85913.94
2022-08-07T03:09:43.541Z,85901.31
2022-08-07T03:12:06.584Z,85898.78
2022-08-07T03:14:39.852Z,85887.81
2022-08-07T03:20:02.898Z,85919.84
2022-08-07T03:22:55.538Z,85882.78
2022-08-07T03:25:24.212Z,85913.25
2022-08-07T03:28:09.797Z,85859.94
2022-08-07T03:30:48.119Z,85878.84
2022-08-07T03:33:17.871Z,85915.09
2022-08-07T03:35:50.452Z,85906.19
2022-08-07T03:38:29.553Z,85911.50
2022-08-07T03:41:02.498Z,85915.59
2022-08-07T03:43:57.673Z,85917.41
2022-08-07T03:46:31.775Z,85888.84
2022-08-07T03:49:03.529Z,85874.91
2022-08-07T03:52:02.004Z,85911.00
2022-08-07T03:54:36.412Z,85920.22
2022-08-07T03:58:08.905Z,85916.25
2022-08-07T04:00:11.703Z,85912.06
2022-08-07T04:02:50.273Z,85872.13
2022-08-07T04:05:39.608Z,85914.97
2022-08-07T04:08:12.841Z,85920.50
2022-08-07T04:12:26.775Z,85922.03
2022-08-07T04:14:37.763Z,85907.97
2022-08-07T04:18:31.043Z,85917.59
2022-08-07T04:20:21.944Z,85920.75
2022-08-07T04:23:01.315Z,85893.47
2022-08-07T04:25:39.412Z,85911.47
2022-08-07T04:28:14.727Z,85923.13
2022-08-07T04:31:09.349Z,85921.41
2022-08-07T04:33:55.036Z,85913.59
2022-08-07T04:36:26.455Z,85925.44
2022-08-07T04:38:55.900Z,85928.66
2022-08-07T04:41:25.858Z,85890.63
2022-08-07T04:44:14.553Z,85917.31
2022-08-07T04:47:57.021Z,85922.38
2022-08-07T04:50:32.461Z,85928.25
2022-08-07T04:53:27.794Z,85925.97
2022-08-07T04:58:14.296Z,85931.88
2022-08-07T05:00:09.733Z,85939.13
2022-08-07T05:02:23.732Z,85934.47
2022-08-07T05:05:52.617Z,85933.41
2022-08-07T05:08:13.136Z,85935.75
2022-08-07T05:11:58.109Z,85941.94
2022-08-07T05:14:58.999Z,85941.25
2022-08-07T05:18:08.773Z,85920.78
2022-08-07T05:20:46.548Z,85941.00
2022-08-07T05:23:30.140Z,85883.59
2022-08-07T05:26:13.564Z,85944.28
2022-08-07T05:29:22.609Z,85912.88
2022-08-07T05:31:52.932Z,85960.38
2022-08-07T05:34:50.354Z,85953.13
2022-08-07T05:37:43.854Z,85948.66
2022-08-07T05:40:17.634Z,85947.50
2022-08-07T05:42:55.803Z,85951.94
2022-08-07T05:45:46.565Z,85917.78
2022-08-07T05:48:15.507Z,85946.06
2022-08-07T05:50:48.402Z,85953.50
2022-08-07T05:54:13.097Z,85957.56
2022-08-07T05:56:12.530Z,85969.75
2022-08-07T05:58:49.417Z,85973.00
2022-08-07T06:01:35.820Z,85983.28
2022-08-07T06:04:08.822Z,85982.50
2022-08-07T06:06:46.423Z,85976.66
2022-08-07T06:09:17.802Z,85959.13
2022-08-07T06:12:41.679Z,85979.63
2022-08-07T06:15:16.332Z,85958.94
2022-08-07T06:17:55.062Z,85983.44
2022-08-07T06:20:49.703Z,85966.59
2022-08-07T06:23:25.169Z,85987.72
2022-08-07T06:26:05.657Z,85975.63
2022-08-07T06:29:20.924Z,85969.00
2022-08-07T06:32:17.866Z,85993.69
2022-08-07T06:34:47.010Z,85990.63
2022-08-07T06:37:43.572Z,85966.66
2022-08-07T06:40:17.916Z,86014.66
2022-08-07T06:42:52.937Z,85935.16
2022-08-07T06:48:36.772Z,85977.16
2022-08-07T06:51:33.427Z,85999.75
2022-08-07T06:55:28.486Z,86002.00
2022-08-07T06:57:39.408Z,86008.28
2022-08-07T07:00:17.678Z,85971.19
2022-08-07T07:02:57.356Z,86007.66
2022-08-07T07:06:02.816Z,85970.16
2022-08-07T07:08:18.508Z,86015.91
2022-08-07T07:10:57.019Z,85965.47
2022-08-07T07:13:58.600Z,86013.09
2022-08-07T07:16:45.265Z,86019.78
2022-08-07T07:20:32.985Z,86015.91
2022-08-07T07:24:08.871Z,86019.13
2022-08-07T07:26:35.302Z,86016.88
2022-08-07T07:33:24.165Z,86022.44
2022-08-07T07:36:12.798Z,86027.28
2022-08-07T07:38:43.536Z,86003.00
2022-08-07T07:41:17.002Z,86032.41
2022-08-07T07:44:17.826Z,86040.34
2022-08-07T07:46:55.813Z,86036.50
2022-08-07T07:50:34.754Z,86047.63
2022-08-07T07:52:50.153Z,86037.06
2022-08-07T07:55:23.022Z,86012.00
2022-08-07T07:57:58.157Z,86043.50
2022-08-07T08:00:31.270Z,86007.38
2022-08-07T08:03:08.805Z,85993.00
2022-08-07T08:05:50.807Z,86035.75
2022-08-07T08:08:35.584Z,86041.19
2022-08-07T08:11:59.492Z,86048.31
2022-08-07T08:14:24.620Z,86038.13
2022-08-07T08:16:56.406Z,86030.47
2022-08-07T08:20:19.826Z,86035.78
2022-08-07T08:23:14.245Z,86034.25
2022-08-07T08:26:07.205Z,86009.38
2022-08-07T08:28:45.276Z,86024.72
2022-08-07T08:31:58.956Z,86034.03
2022-08-07T08:37:59.480Z,86033.00
2022-08-07T08:40:02.321Z,86045.41
2022-08-07T08:42:58.327Z,86045.41
2022-08-07T08:46:06.890Z,86046.00
2022-08-07T08:48:50.895Z,86052.31
2022-08-07T08:51:49.409Z,86012.00
2022-08-07T08:54:35.489Z,86008.63
2022-08-07T08:57:37.769Z,86049.69
2022-08-07T09:00:10.593Z,86051.41
2022-08-07T09:02:52.545Z,86054.03
2022-08-07T09:05:37.325Z,86028.59
2022-08-07T09:08:29.160Z,86041.78
2022-08-07T09:14:20.653Z,86048.19
2022-08-07T09:17:59.739Z,86039.41
2022-08-07T09:20:58.074Z,86016.63
2022-08-07T09:24:33.686Z,86025.72
2022-08-07T09:27:04.533Z,86043.03
2022-08-07T09:30:28.097Z,86037.09
2022-08-07T09:33:52.714Z,86028.72
2022-08-07T09:37:05.486Z,86033.78
2022-08-07T09:44:03.485Z,86047.31
2022-08-07T09:47:25.318Z,86038.06
2022-08-07T09:50:26.410Z,86052.00
2022-08-07T09:53:05.015Z,86062.22
2022-08-07T09:56:05.394Z,86049.50
2022-08-07T09:58:55.410Z,86071.00
2022-08-07T10:01:50.403Z,86084.44
2022-08-07T10:05:12.714Z,86072.56
2022-08-07T10:08:32.744Z,86057.41
2022-08-07T10:12:01.940Z,86057.81
2022-08-07T10:14:54.982Z,86055.56
2022-08-07T10:18:20.679Z,86045.75
2022-08-07T10:20:54.762Z,86051.56
2022-08-07T10:24:05.252Z,86046.41
2022-08-07T10:27:06.678Z,86019.13
2022-08-07T10:30:27.486Z,86063.84
2022-08-07T10:33:14.995Z,85996.56
2022-08-07T10:36:29.437Z,86045.88
2022-08-07T10:40:06.101Z,86047.22
2022-08-07T10:42:43.330Z,86048.19
2022-08-07T10:45:44.810Z,86049.44
2022-08-07T10:48:48.939Z,86051.28
2022-08-07T10:51:57.687Z,86027.78
2022-08-07T10:54:22.410Z,86045.78
2022-08-07T11:00:39.389Z,86054.59
2022-08-07T11:03:28.107Z,86063.63
2022-08-07T11:06:26.900Z,86076.69
2022-08-07T11:09:02.432Z,86083.03
2022-08-07T11:11:46.315Z,86067.16
2022-08-07T11:14:57.067Z,86086.63
2022-08-07T11:18:04.578Z,86030.66
2022-08-07T11:20:42.748Z,86084.34
2022-08-07T11:23:36.281Z,86077.38
2022-08-07T11:26:25.145Z,86067.53
2022-08-07T11:33:54.115Z,86080.97
2022-08-07T11:36:50.546Z,86075.09
2022-08-07T11:39:24.442Z,86084.13
2022-08-07T11:42:18.716Z,86080.78
2022-08-07T11:45:12.401Z,86092.75
2022-08-07T11:47:56.587Z,86078.84
2022-08-07T11:50:44.556Z,86078.16
2022-08-07T11:54:00.668Z,86083.25
2022-08-07T11:56:56.780Z,86083.03
2022-08-07T12:00:10.249Z,86081.00
2022-08-07T12:03:07.085Z,86066.31
2022-08-07T12:06:39.307Z,86074.88
2022-08-07T12:09:23.583Z,86062.56
2022-08-07T12:12:20.376Z,86067.38
2022-08-07T12:15:00.276Z,86068.34
2022-08-07T12:18:29.784Z,86061.44
2022-08-07T12:21:55.739Z,86057.06
2022-08-07T12:26:05.653Z,86053.88
2022-08-07T12:32:12.807Z,86044.44
2022-08-07T12:34:49.330Z,86041.06
2022-08-07T12:37:23.419Z,86038.38
2022-08-07T12:39:58.923Z,86045.44
2022-08-07T12:42:32.010Z,86023.63
2022-08-07T12:45:06.578Z,86043.78
2022-08-07T12:50:58.999Z,86037.88
2022-08-07T12:54:03.090Z,86040.06
2022-08-07T12:56:51.094Z,85990.34
2022-08-07T12:59:30.450Z,85998.28
2022-08-07T13:02:41.311Z,85993.44
2022-08-07T13:06:02.553Z,86017.38
2022-08-07T13:08:43.385Z,86025.63
2022-08-07T13:12:01.989Z,86020.53
2022-08-07T13:14:55.293Z,85976.13
2022-08-07T13:17:40.075Z,86040.56
2022-08-07T13:20:46.638Z,86026.44
2022-08-07T13:24:00.947Z,86021.69
2022-08-07T13:26:54.282Z,86037.38
2022-08-07T13:29:54.749Z,86031.88
2022-08-07T13:34:30.715Z,86027.47
2022-08-07T13:36:42.622Z,85992.06
2022-08-07T13:39:49.802Z,86002.94
2022-08-07T13:42:14.730Z,86018.19
2022-08-07T13:44:55.283Z,85978.50
2022-08-07T13:48:05.998Z,85973.63
2022-08-07T13:50:33.400Z,86007.41
2022-08-07T13:53:04.334Z,85988.75
2022-08-07T13:55:37.086Z,85987.28
2022-08-07T13:58:32.536Z,85990.88
2022-08-07T14:01:33.243Z,86015.38
2022-08-07T14:04:21.472Z,85941.44
2022-08-07T14:06:52.793Z,85946.34
2022-08-07T14:10:12.351Z,86018.94
2022-08-07T14:13:03.745Z,86014.38
2022-08-07T14:15:43.709Z,86012.34
2022-08-07T14:18:29.058Z,86010.56
2022-08-07T14:22:03.013Z,85993.78
2022-08-07T14:24:41.357Z,86025.06
2022-08-07T14:28:11.705Z,86023.94
2022-08-07T14:30:57.549Z,86019.09
2022-08-07T14:33:26.810Z,86020.78
2022-08-07T14:36:15.922Z,86023.28
2022-08-07T14:38:50.611Z,86031.50
2022-08-07T14:41:34.184Z,86031.97
2022-08-07T14:48:08.002Z,85992.38
2022-08-07T14:50:44.411Z,86049.56
2022-08-07T14:53:13.775Z,86044.16
2022-08-07T14:55:55.507Z,86065.41
2022-08-07T14:58:34.934Z,86066.88
2022-08-07T15:01:42.677Z,86062.66
2022-08-07T15:04:53.162Z,86032.19
2022-08-07T15:07:51.114Z,86052.09
2022-08-07T15:10:26.689Z,86029.47
2022-08-07T15:13:26.729Z,86038.25
2022-08-07T15:16:11.110Z,86014.19
2022-08-07T15:18:47.646Z,86035.16
2022-08-07T15:21:43.920Z,86044.81
2022-08-07T15:25:23.724Z,86045.53
2022-08-07T15:28:43.156Z,86042.47
2022-08-07T15:32:00.657Z,86055.91
2022-08-07T15:34:50.148Z,86040.22
2022-08-07T15:38:17.962Z,86011.31
2022-08-07T15:44:13.370Z,86047.25
2022-08-07T15:47:59.837Z,86043.69
2022-08-07T15:51:08.773Z,86020.25
2022-08-07T15:53:51.996Z,86028.13
2022-08-07T15:56:48.164Z,86003.97
2022-08-07T15:59:17.868Z,86025.28
2022-08-07T16:02:01.948Z,86029.47
2022-08-07T16:04:33.945Z,85984.44
2022-08-07T16:08:28.424Z,85972.78
2022-08-07T16:10:12.867Z,85991.03
2022-08-07T16:13:01.024Z,86034.00
2022-08-07T16:15:55.526Z,86030.03
2022-08-07T16:18:57.584Z,86035.03
2022-08-07T16:22:30.167Z,86016.97
2022-08-07T16:25:52.201Z,86051.13
2022-08-07T16:32:01.870Z,86044.50
2022-08-07T16:35:58.766Z,86038.09
2022-08-07T16:39:03.080Z,86048.28
2022-08-07T16:41:54.193Z,86048.59
2022-08-07T16:45:14.302Z,85998.91
2022-08-07T16:47:57.293Z,86041.28
2022-08-07T16:51:21.575Z,86045.78
2022-08-07T16:54:10.762Z,86002.41
2022-08-07T16:56:43.900Z,86050.25
2022-08-07T16:59:46.575Z,86050.25
2022-08-07T17:02:55.301Z,86064.41
2022-08-07T17:06:50.193Z,86059.72
2022-08-07T17:10:06.974Z,86067.34
2022-08-07T17:12:47.547Z,86080.16
2022-08-07T17:15:15.560Z,86082.81
2022-08-07T17:18:18.631Z,86089.22
2022-08-07T17:20:47.985Z,86065.78
2022-08-07T17:23:32.572Z,86079.31
2022-08-07T17:26:50.142Z,86079.41
2022-08-07T17:30:14.176Z,86085.03
2022-08-07T17:34:15.257Z,86087.66
2022-08-07T17:36:20.378Z,86059.09
2022-08-07T17:39:10.528Z,86082.00
2022-08-07T17:44:58.621Z,86061.72
2022-08-07T17:48:31.257Z,86090.97
2022-08-07T17:51:21.529Z,86092.53
2022-08-07T17:54:39.603Z,86099.13
2022-08-07T17:57:20.349Z,86096.91
2022-08-07T17:59:53.136Z,86096.69
2022-08-07T18:02:53.795Z,86108.66
2022-08-07T18:05:28.165Z,86105.72
2022-08-07T18:08:35.438Z,86102.31
2022-08-07T18:14:23.782Z,86114.56
2022-08-07T18:17:05.171Z,86105.41
2022-08-07T18:22:49.622Z,86104.78
2022-08-07T18:25:40.723Z,86072.16
2022-08-07T18:28:35.691Z,86120.47
2022-08-07T18:31:33.956Z,86114.84
2022-08-07T18:41:20.618Z,86135.66
2022-08-07T18:44:22.754Z,86129.59
2022-08-07T18:47:08.227Z,86108.22
2022-08-07T18:50:30.849Z,86141.53
2022-08-07T18:53:36.963Z,86147.09
2022-08-07T18:56:57.905Z,86153.31
2022-08-07T18:59:47.630Z,86163.69
2022-08-07T19:03:03.763Z,86146.50
2022-08-07T19:06:01.922Z,86157.16
2022-08-07T19:08:46.491Z,86157.75
2022-08-07T19:14:20.075Z,86154.44
2022-08-07T19:17:59.463Z,86113.47
2022-08-07T19:21:09.898Z,86152.63
2022-08-07T19:23:58.151Z,86123.84
2022-08-07T19:27:01.910Z,86157.16
2022-08-07T19:31:05.544Z,86152.75
2022-08-07T19:32:46.350Z,86160.00
2022-08-07T19:35:19.557Z,86135.78
2022-08-07T19:37:58.450Z,86171.41
2022-08-07T19:40:31.846Z,86157.69
2022-08-07T19:43:12.732Z,86139.03
2022-08-07T19:46:05.077Z,86138.84
2022-08-07T19:48:53.825Z,86150.13
2022-08-07T19:51:52.269Z,86156.59
2022-08-07T19:54:33.414Z,86163.59
2022-08-07T19:58:01.029Z,86144.31
2022-08-07T19:59:59.952Z,86167.31
2022-08-07T20:03:33.854Z,86161.63
2022-08-07T20:06:25.002Z,86177.19
2022-08-07T20:09:01.887Z,86148.22
2022-08-07T20:12:22.976Z,86171.06
2022-08-07T20:14:54.019Z,86167.03
2022-08-07T20:23:52.016Z,86172.41
2022-08-07T20:26:29.901Z,86174.63
2022-08-07T20:32:55.205Z,86174.28
2022-08-07T20:35:34.825Z,86153.66
2022-08-07T20:39:30.379Z,86183.91
2022-08-07T20:41:59.191Z,86180.41
2022-08-07T20:44:49.313Z,86178.03
2022-08-07T20:47:56.895Z,86178.72
2022-08-07T20:50:30.559Z,86151.94
2022-08-07T20:53:25.857Z,86177.81
2022-08-07T20:56:11.534Z,86175.06
2022-08-07T20:58:43.491Z,86170.53
2022-08-07T21:01:45.712Z,86169.94
2022-08-07T21:04:28.148Z,86164.47
2022-08-07T21:07:04.325Z,86179.25
2022-08-07T21:10:11.569Z,86164.72
2022-08-07T21:12:42.060Z,86187.41
2022-08-07T21:15:21.252Z,86181.78
2022-08-07T21:18:40.527Z,86169.00
2022-08-07T21:21:09.770Z,86197.59
2022-08-07T21:24:02.452Z,86185.88
2022-08-07T21:26:43.989Z,86188.06
2022-08-07T21:29:33.483Z,86166.00
2022-08-07T21:32:43.660Z,86183.75
2022-08-07T21:36:05.103Z,86199.06
2022-08-07T21:39:00.408Z,86195.25
2022-08-07T21:41:52.448Z,86154.81
2022-08-07T21:45:41.981Z,86184.81
2022-08-07T21:48:27.896Z,86184.81
2022-08-07T21:51:51.469Z,86188.47
2022-08-07T21:54:34.415Z,86187.72
2022-08-07T21:57:31.229Z,86187.28
2022-08-07T22:00:22.333Z,86175.41
2022-08-07T22:03:58.839Z,86157.25
2022-08-07T22:06:34.049Z,86162.03
2022-08-07T22:09:34.833Z,86185.00
2022-08-07T22:12:53.084Z,86182.25
2022-08-07T22:16:44.089Z,86190.75
2022-08-07T22:19:29.664Z,86182.06
2022-08-07T22:22:55.367Z,86186.09
2022-08-07T22:25:37.083Z,86175.59
2022-08-07T22:28:37.461Z,86185.56
2022-08-07T22:34:53.046Z,86149.69
2022-08-07T22:38:03.231Z,86175.59
2022-08-07T22:42:03.751Z,86164.31
2022-08-07T22:44:21.867Z,86163.91
2022-08-07T22:47:28.007Z,86182.06
2022-08-07T22:50:34.977Z,86177.31
2022-08-07T22:54:06.606Z,86175.25
2022-08-07T22:56:48.286Z,86176.09
2022-08-07T22:59:49.705Z,86176.16
2022-08-07T23:02:27.365Z,86177.09
2022-08-07T23:06:07.812Z,86169.19
2022-08-07T23:08:51.597Z,86171.63
2022-08-07T23:11:59.103Z,86178.63
2022-08-07T23:14:41.077Z,86164.66
2022-08-07T23:21:16.465Z,86173.06
2022-08-07T23:24:12.057Z,86160.34
2022-08-07T23:26:57.131Z,86164.44
2022-08-07T23:30:37.498Z,86146.69
2022-08-07T23:34:22.816Z,86168.59
2022-08-07T23:37:19.627Z,86153.81
2022-08-07T23:40:13.112Z,86168.09
2022-08-07T23:43:16.788Z,86158.00
2022-08-07T23:46:33.821Z,86172.50
2022-08-07T23:49:50.617Z,86163.38
2022-08-07T23:53:01.266Z,86164.91
2022-08-07T23:55:55.860Z,86174.84
2022-08-07T23:58:42.232Z,86168.63
